createdAt,value
2022-12-24T00:02:18.744Z,31.5
2022-12-24T00:08:01.879Z,31.5
2022-12-24T00:13:39.947Z,31.4
2022-12-24T00:19:03.799Z,31.4
2022-12-24T00:24:42.715Z,31.3
2022-12-24T00:29:50.371Z,31.3
2022-12-24T00:35:36.118Z,31.2
2022-12-24T00:41:13.596Z,31.1
2022-12-24T00:46:52.090Z,31.1
2022-12-24T00:52:33.905Z,31.1
2022-12-24T00:58:11.162Z,31
2022-12-24T01:03:35.703Z,30.9
2022-12-24T01:09:14.347Z,30.9
2022-12-24T01:14:51.902Z,30.8
2022-12-24T01:20:30.162Z,30.8
2022-12-24T01:26:08.329Z,30.8
2022-12-24T01:31:46.622Z,30.7
2022-12-24T01:36:54.095Z,30.7
2022-12-24T01:42:01.247Z,30.6
2022-12-24T01:47:29.685Z,30.6
2022-12-24T01:52:51.444Z,30.5
2022-12-24T01:58:30.115Z,30.5
2022-12-24T02:04:09.143Z,30.5
2022-12-24T02:09:47.124Z,31.3
2022-12-24T02:15:10.270Z,32.2
2022-12-24T02:20:17.383Z,32.8
2022-12-24T02:25:55.731Z,33.4
2022-12-24T02:31:33.947Z,33.9
2022-12-24T02:36:55.664Z,34.4
2022-12-24T02:42:25.702Z,34.8
2022-12-24T02:48:25.325Z,35.1
2022-12-24T02:54:02.744Z,35.5
2022-12-24T02:59:25.478Z,35.8
2022-12-24T03:04:49.420Z,36
2022-12-24T03:10:11.358Z,36.1
2022-12-24T03:15:34.211Z,36.3
2022-12-24T03:21:13.241Z,36.4
2022-12-24T03:26:50.975Z,36.6
2022-12-24T03:32:13.672Z,36.8
2022-12-24T03:37:51.718Z,36.7
2022-12-24T03:43:29.433Z,36.7
2022-12-24T03:49:07.709Z,36.7
2022-12-24T03:54:45.253Z,36.7
2022-12-24T04:00:22.387Z,36.6
2022-12-24T04:05:30.525Z,36.6
2022-12-24T04:11:09.987Z,36.6
2022-12-24T04:16:48.594Z,36.5
2022-12-24T04:22:26.672Z,36.4
2022-12-24T04:28:04.678Z,36.4
2022-12-24T04:33:27.527Z,36.3
2022-12-24T04:38:50.091Z,36.2
2022-12-24T04:44:00.788Z,36.1
2022-12-24T04:49:39.595Z,36.1
2022-12-24T04:55:02.574Z,36
2022-12-24T05:00:24.511Z,35.9
2022-12-24T05:06:34.411Z,35.8
2022-12-24T05:12:11.721Z,35.7
2022-12-24T05:17:58.341Z,35.6
2022-12-24T05:23:35.841Z,35.6
2022-12-24T05:29:14.296Z,35.4
2022-12-24T05:34:21.834Z,35.4
2022-12-24T05:40:05.284Z,35.3
2022-12-24T05:45:43.185Z,35.2
2022-12-24T05:51:07.255Z,35.1
2022-12-24T05:56:31.388Z,35
2022-12-24T06:02:10.027Z,34.9
2022-12-24T06:07:38.063Z,34.8
2022-12-24T06:13:16.385Z,34.8
2022-12-24T06:19:00.162Z,34.7
2022-12-24T06:24:38.450Z,34.6
2022-12-24T06:30:01.597Z,34.6
2022-12-24T06:35:47.861Z,34.4
2022-12-24T06:41:26.097Z,34.4
2022-12-24T06:47:04.699Z,34.3
2022-12-24T06:52:43.131Z,34.2
2022-12-24T06:58:05.411Z,34.1
2022-12-24T07:03:50.169Z,34.1
2022-12-24T07:09:29.345Z,34
2022-12-24T07:15:08.264Z,33.9
2022-12-24T07:20:54.588Z,33.7
2022-12-24T07:26:33.743Z,33.5
2022-12-24T07:32:26.495Z,33.4
2022-12-24T07:38:07.640Z,33.3
2022-12-24T07:43:53.498Z,33.1
2022-12-24T07:49:32.181Z,33.1
2022-12-24T07:55:10.623Z,32.9
2022-12-24T08:00:49.334Z,32.8
2022-12-24T08:06:33.583Z,32.8
2022-12-24T08:12:12.260Z,32.7
2022-12-24T08:17:50.192Z,32.5
2022-12-24T08:23:28.942Z,31.1
2022-12-24T08:29:06.459Z,29.6
2022-12-24T08:34:52.060Z,28.4
2022-12-24T08:40:30.159Z,27.4
2022-12-24T08:46:13.571Z,26.6
2022-12-24T08:51:51.980Z,25.9
2022-12-24T08:57:35.398Z,25.4
2022-12-24T09:03:18.456Z,24.9
2022-12-24T09:08:59.163Z,24.5
2022-12-24T09:14:41.997Z,24.2
2022-12-24T09:20:26.110Z,23.9
2022-12-24T09:25:53.500Z,23.6
2022-12-24T09:31:16.329Z,23.5
2022-12-24T09:36:59.800Z,23.3
2022-12-24T09:42:42.954Z,23.2
2022-12-24T09:48:09.014Z,23.1
2022-12-24T09:53:47.908Z,23
2022-12-24T09:59:10.819Z,22.9
2022-12-24T10:04:35.223Z,22.8
2022-12-24T10:10:13.840Z,22.6
2022-12-24T10:15:41.731Z,22.5
2022-12-24T10:21:19.878Z,22.4
2022-12-24T10:27:02.168Z,22.2
2022-12-24T10:32:46.464Z,22.1
2022-12-24T10:38:24.868Z,22
2022-12-24T10:43:56.128Z,21.9
2022-12-24T10:49:39.883Z,21.8
2022-12-24T10:55:18.501Z,21.7
2022-12-24T11:00:58.207Z,21.7
2022-12-24T11:06:22.669Z,21.6
2022-12-24T11:12:08.869Z,21.6
2022-12-24T11:18:23.325Z,21.5
2022-12-24T11:24:08.729Z,21.4
2022-12-24T11:29:56.880Z,21.4
2022-12-24T11:35:38.198Z,21.4
2022-12-24T11:41:15.844Z,21.4
2022-12-24T11:46:56.312Z,37.3
2022-12-24T11:52:50.951Z,34.3
2022-12-24T11:58:36.294Z,31.9
2022-12-24T12:04:07.985Z,30.3
2022-12-24T12:09:30.293Z,29.3
2022-12-24T12:15:27.875Z,28.4
2022-12-24T12:21:10.932Z,34.6
2022-12-24T12:26:49.371Z,32.4
2022-12-24T12:32:34.841Z,33.6
2022-12-24T12:38:20.516Z,31.8
2022-12-24T12:44:04.039Z,30.3
2022-12-24T12:49:35.065Z,29.3
2022-12-24T12:55:15.656Z,28.4
2022-12-24T13:00:55.814Z,27.7
2022-12-24T13:06:22.717Z,27.1
2022-12-24T13:12:08.958Z,26.6
2022-12-24T13:17:51.994Z,26.1
2022-12-24T13:23:35.758Z,25.7
2022-12-24T13:29:21.200Z,25.3
2022-12-24T13:35:00.176Z,24.9
2022-12-24T13:40:57.182Z,24.6
2022-12-24T13:46:27.612Z,24.3
2022-12-24T13:52:04.086Z,24.1
2022-12-24T13:57:47.303Z,23.9
2022-12-24T14:03:33.933Z,23.7
2022-12-24T14:09:02.909Z,23.5
2022-12-24T14:14:46.918Z,23.3
2022-12-24T14:20:27.031Z,23.2
2022-12-24T14:26:05.251Z,23
2022-12-24T14:31:43.816Z,22.8
2022-12-24T14:42:45.418Z,22.6
2022-12-24T14:48:27.881Z,22.4
2022-12-24T14:54:44.412Z,22.3
2022-12-24T15:00:56.549Z,22.2
2022-12-24T15:06:36.322Z,22.1
2022-12-24T15:12:19.188Z,22
2022-12-24T15:17:48.163Z,21.9
2022-12-24T15:23:00.930Z,21.8
2022-12-24T15:28:39.268Z,21.8
2022-12-24T15:34:25.176Z,21.7
2022-12-24T15:39:47.649Z,21.6
2022-12-24T15:45:10.645Z,21.6
2022-12-24T15:50:19.042Z,21.6
2022-12-24T15:55:41.678Z,21.5
2022-12-24T16:00:49.159Z,21.4
2022-12-24T16:06:14.371Z,21.4
2022-12-24T16:11:22.322Z,21.4
2022-12-24T16:22:48.196Z,21.3
2022-12-24T16:28:30.580Z,21.3
2022-12-24T16:34:09.102Z,21.3
2022-12-24T16:39:46.988Z,21.3
2022-12-24T16:45:16.726Z,21.3
2022-12-24T16:50:58.513Z,21.2
2022-12-24T17:01:34.182Z,21.1
